createdAt,value
2022-09-27T00:00:36.795Z,4.10
2022-09-27T00:02:04.011Z,3.90
2022-09-27T00:03:12.586Z,3.80
2022-09-27T00:04:19.661Z,3.90
2022-09-27T00:05:27.199Z,3.70
2022-09-27T00:06:38.609Z,4.00
2022-09-27T00:07:48.517Z,4.00
2022-09-27T00:08:55.992Z,3.90
2022-09-27T00:10:03.796Z,4.20
2022-09-27T00:11:14.989Z,3.90
2022-09-27T00:12:22.132Z,3.80
2022-09-27T00:13:29.557Z,3.70
2022-09-27T00:14:37.065Z,3.80
2022-09-27T00:15:44.178Z,3.60
2022-09-27T00:16:52.039Z,3.70
2022-09-27T00:17:59.532Z,4.20
2022-09-27T00:19:08.070Z,4.00
2022-09-27T00:20:15.000Z,3.90
2022-09-27T00:21:22.591Z,3.80
2022-09-27T00:22:29.955Z,3.80
2022-09-27T00:23:36.922Z,3.40
2022-09-27T00:24:44.270Z,3.90
2022-09-27T00:25:58.560Z,3.60
2022-09-27T00:27:05.963Z,3.60
2022-09-27T00:28:13.633Z,4.00
2022-09-27T00:29:22.665Z,3.40
2022-09-27T00:30:32.059Z,3.50
2022-09-27T00:31:41.108Z,3.30
2022-09-27T00:32:50.171Z,3.40
2022-09-27T00:34:00.335Z,3.60
2022-09-27T00:35:12.894Z,3.60
2022-09-27T00:36:24.762Z,2.90
2022-09-27T00:37:36.006Z,3.30
2022-09-27T00:38:44.741Z,3.50
2022-09-27T00:39:54.059Z,3.30
2022-09-27T00:41:03.814Z,2.60
2022-09-27T00:42:16.450Z,2.90
2022-09-27T00:43:25.931Z,3.40
2022-09-27T00:44:35.359Z,3.10
2022-09-27T00:45:45.340Z,3.30
2022-09-27T00:46:55.474Z,3.10
2022-09-27T00:48:05.484Z,2.50
2022-09-27T00:49:38.034Z,3.40
2022-09-27T00:50:47.144Z,3.60
2022-09-27T00:52:00.211Z,3.30
2022-09-27T00:53:15.179Z,3.30
2022-09-27T00:54:24.031Z,3.10
2022-09-27T00:55:35.365Z,2.90
2022-09-27T00:56:45.095Z,2.80
2022-09-27T00:57:56.154Z,2.80
2022-09-27T00:59:32.997Z,2.90
2022-09-27T01:00:42.627Z,3.50
2022-09-27T01:01:52.120Z,3.30
2022-09-27T01:03:02.031Z,3.10
2022-09-27T01:04:12.324Z,3.00
2022-09-27T01:05:22.857Z,2.60
2022-09-27T01:06:31.170Z,2.80
2022-09-27T01:07:40.592Z,2.90
2022-09-27T01:08:50.118Z,2.80
2022-09-27T01:09:59.465Z,3.00
2022-09-27T01:11:29.094Z,2.80
2022-09-27T01:13:00.003Z,3.30
2022-09-27T01:14:41.862Z,3.50
2022-09-27T01:15:56.491Z,3.20
2022-09-27T01:17:18.627Z,3.20
2022-09-27T01:19:00.832Z,3.50
2022-09-27T01:20:18.913Z,4.50
2022-09-27T01:21:53.093Z,3.90
2022-09-27T01:23:09.989Z,3.10
2022-09-27T01:24:32.698Z,3.20
2022-09-27T01:26:12.183Z,3.40
2022-09-27T01:27:58.078Z,3.10
2022-09-27T01:29:25.139Z,3.30
2022-09-27T01:30:49.716Z,3.10
2022-09-27T01:32:23.468Z,3.80
2022-09-27T01:34:06.003Z,3.90
2022-09-27T01:35:29.161Z,3.60
2022-09-27T01:36:56.802Z,3.70
2022-09-27T01:38:08.906Z,3.60
2022-09-27T01:39:24.475Z,3.40
2022-09-27T01:41:21.241Z,3.60
2022-09-27T01:43:01.555Z,3.80
2022-09-27T01:44:17.187Z,3.40
2022-09-27T01:45:47.818Z,3.10
2022-09-27T01:47:41.679Z,3.40
2022-09-27T01:49:36.843Z,3.60
2022-09-27T01:51:16.852Z,3.30
2022-09-27T01:52:29.594Z,3.80
2022-09-27T01:53:58.757Z,3.30
2022-09-27T01:55:09.868Z,3.50
2022-09-27T01:56:57.853Z,3.50
2022-09-27T01:58:20.022Z,3.40
2022-09-27T01:59:34.748Z,3.50
2022-09-27T02:00:52.819Z,3.00
2022-09-27T02:02:05.455Z,3.30
2022-09-27T02:03:25.649Z,3.80
2022-09-27T02:04:54.162Z,3.70
2022-09-27T02:06:06.707Z,3.50
2022-09-27T02:07:43.121Z,3.40
2022-09-27T02:08:58.349Z,3.50
2022-09-27T02:10:31.601Z,4.00
2022-09-27T02:11:45.294Z,4.20
2022-09-27T02:13:17.726Z,3.30
2022-09-27T02:14:56.416Z,3.30
2022-09-27T02:16:21.836Z,3.40
2022-09-27T02:17:56.343Z,3.10
2022-09-27T02:19:32.603Z,3.50
2022-09-27T02:20:44.324Z,3.20
2022-09-27T02:21:58.898Z,3.50
2022-09-27T02:23:20.969Z,3.40
2022-09-27T02:24:52.974Z,3.40
2022-09-27T02:26:12.433Z,3.20
2022-09-27T02:27:48.576Z,3.10
2022-09-27T02:29:21.419Z,3.40
2022-09-27T02:30:32.380Z,3.20
2022-09-27T02:31:48.487Z,3.10
2022-09-27T02:32:57.707Z,2.70
2022-09-27T02:34:16.025Z,2.80
2022-09-27T02:35:29.879Z,2.90
2022-09-27T02:36:37.809Z,2.80
2022-09-27T02:37:46.359Z,3.00
2022-09-27T02:38:56.306Z,2.60
2022-09-27T02:40:06.152Z,2.50
2022-09-27T02:41:21.316Z,2.40
2022-09-27T02:42:29.429Z,2.50
2022-09-27T02:43:38.629Z,2.90
2022-09-27T02:44:47.171Z,3.60
2022-09-27T02:46:09.806Z,2.70
2022-09-27T02:47:55.910Z,2.50
2022-09-27T02:49:40.549Z,2.50
2022-09-27T02:51:23.534Z,2.30
2022-09-27T02:52:46.130Z,2.60
2022-09-27T02:54:11.445Z,2.40
2022-09-27T02:56:01.938Z,2.60
2022-09-27T02:57:58.429Z,3.30
2022-09-27T02:59:44.631Z,3.40
2022-09-27T03:01:11.181Z,3.10
2022-09-27T03:02:59.656Z,2.30
2022-09-27T03:04:28.269Z,2.50
2022-09-27T03:05:41.611Z,2.70
2022-09-27T03:06:50.348Z,2.60
2022-09-27T03:07:59.742Z,2.40
2022-09-27T03:09:16.386Z,2.40
2022-09-27T03:10:29.064Z,2.80
2022-09-27T03:11:37.310Z,2.50
2022-09-27T03:12:46.570Z,2.20
2022-09-27T03:14:13.654Z,2.80
2022-09-27T03:15:33.877Z,2.50
2022-09-27T03:16:42.021Z,2.60
2022-09-27T03:18:17.752Z,2.40
2022-09-27T03:19:35.927Z,2.30
2022-09-27T03:21:03.485Z,2.50
2022-09-27T03:22:11.831Z,2.10
2022-09-27T03:23:20.422Z,2.60
2022-09-27T03:24:29.029Z,2.00
2022-09-27T03:25:37.705Z,2.30
2022-09-27T03:26:46.485Z,2.30
2022-09-27T03:27:56.238Z,2.50
2022-09-27T03:29:05.084Z,2.30
2022-09-27T03:30:14.609Z,2.90
2022-09-27T03:31:24.282Z,2.30
2022-09-27T03:32:53.641Z,2.70
2022-09-27T03:34:20.198Z,2.10
2022-09-27T03:35:28.735Z,2.10
2022-09-27T03:36:38.097Z,2.50
2022-09-27T03:37:46.682Z,2.40
2022-09-27T03:39:00.091Z,2.10
2022-09-27T03:40:09.246Z,3.00
2022-09-27T03:41:18.994Z,2.50
2022-09-27T03:42:27.746Z,2.50
2022-09-27T03:43:36.211Z,2.40
2022-09-27T03:44:46.324Z,2.70
2022-09-27T03:45:56.264Z,2.20
2022-09-27T03:47:05.610Z,2.40
2022-09-27T03:48:16.402Z,2.10
2022-09-27T03:49:24.955Z,2.30
2022-09-27T03:50:33.067Z,2.20
2022-09-27T03:51:42.618Z,2.60
2022-09-27T03:52:54.130Z,2.30
2022-09-27T03:54:04.474Z,2.40
2022-09-27T03:55:14.090Z,2.50
2022-09-27T03:56:22.637Z,2.40
2022-09-27T03:57:33.217Z,2.60
2022-09-27T03:58:45.475Z,2.50
2022-09-27T03:59:56.339Z,2.40
2022-09-27T04:01:21.280Z,2.40
2022-09-27T04:02:32.883Z,2.60
2022-09-27T04:04:00.372Z,2.10
2022-09-27T04:05:13.516Z,2.50
2022-09-27T04:06:22.415Z,2.30
2022-09-27T04:07:31.972Z,2.20
2022-09-27T04:08:41.606Z,2.40
2022-09-27T04:09:51.972Z,2.40
2022-09-27T04:11:00.801Z,2.20
2022-09-27T04:12:10.189Z,2.40
2022-09-27T04:13:19.705Z,2.40
2022-09-27T04:14:34.117Z,2.50
2022-09-27T04:16:12.215Z,2.50
2022-09-27T04:17:34.431Z,2.30
2022-09-27T04:19:10.142Z,2.20
2022-09-27T04:20:34.659Z,2.60
2022-09-27T04:21:47.519Z,2.20
2022-09-27T04:22:56.389Z,2.40
2022-09-27T04:24:07.348Z,2.40
2022-09-27T04:25:15.840Z,2.40
2022-09-27T04:26:24.155Z,2.30
2022-09-27T04:27:54.116Z,2.20
2022-09-27T04:29:03.672Z,2.60
2022-09-27T04:30:14.358Z,2.40
2022-09-27T04:31:52.665Z,2.60
2022-09-27T04:33:33.345Z,2.50
2022-09-27T04:35:12.935Z,2.80
2022-09-27T04:36:31.035Z,2.50
2022-09-27T04:37:57.385Z,3.00
2022-09-27T04:39:08.017Z,2.80
2022-09-27T04:40:22.407Z,2.60
2022-09-27T04:41:31.896Z,2.80
2022-09-27T04:42:41.099Z,2.90
2022-09-27T04:43:49.967Z,2.90
2022-09-27T04:44:58.826Z,2.70
2022-09-27T04:46:08.801Z,2.90
2022-09-27T04:47:17.647Z,2.70
2022-09-27T04:48:26.499Z,2.70
2022-09-27T04:49:35.761Z,2.30
2022-09-27T04:50:44.679Z,2.40
2022-09-27T04:51:55.042Z,2.70
2022-09-27T04:53:04.600Z,2.50
2022-09-27T04:54:12.385Z,2.70
2022-09-27T04:55:29.624Z,2.50
2022-09-27T04:56:38.400Z,3.10
2022-09-27T04:57:47.504Z,2.40
2022-09-27T04:58:57.243Z,2.90
2022-09-27T05:00:07.203Z,2.80
2022-09-27T05:01:16.856Z,2.70
2022-09-27T05:02:34.326Z,2.50
2022-09-27T05:04:10.214Z,2.30
2022-09-27T05:05:20.448Z,2.80
2022-09-27T05:06:29.663Z,2.70
2022-09-27T05:07:41.967Z,3.00
2022-09-27T05:08:55.754Z,2.80
2022-09-27T05:10:10.494Z,3.00
2022-09-27T05:11:19.271Z,3.50
2022-09-27T05:12:50.196Z,2.70
2022-09-27T05:13:59.570Z,3.00
2022-09-27T05:15:10.025Z,3.50
2022-09-27T05:16:22.512Z,2.80
2022-09-27T05:17:58.414Z,2.90
2022-09-27T05:19:30.259Z,4.10
2022-09-27T05:20:58.756Z,3.30
2022-09-27T05:22:21.557Z,3.40
2022-09-27T05:23:35.678Z,4.10
2022-09-27T05:24:44.495Z,3.50
2022-09-27T05:25:54.009Z,3.30
2022-09-27T05:27:06.229Z,3.20
2022-09-27T05:28:13.926Z,3.10
2022-09-27T05:29:22.498Z,2.80
2022-09-27T05:30:46.473Z,2.60
2022-09-27T05:32:00.710Z,2.90
2022-09-27T05:33:09.665Z,2.70
2022-09-27T05:34:51.121Z,2.80
2022-09-27T05:36:01.092Z,2.90
2022-09-27T05:37:11.974Z,3.30
2022-09-27T05:38:21.121Z,2.70
2022-09-27T05:39:31.485Z,2.80
2022-09-27T05:40:41.727Z,3.10
2022-09-27T05:41:53.031Z,2.80
2022-09-27T05:43:02.224Z,3.00
2022-09-27T05:44:10.999Z,2.50
2022-09-27T05:45:22.529Z,3.40
2022-09-27T05:46:32.996Z,2.80
2022-09-27T05:47:41.864Z,2.80
2022-09-27T05:48:50.426Z,2.90
2022-09-27T05:49:59.404Z,3.10
2022-09-27T05:51:08.878Z,3.00
2022-09-27T05:52:21.456Z,3.40
2022-09-27T05:53:33.921Z,2.90
2022-09-27T05:54:44.482Z,3.00
2022-09-27T05:55:53.859Z,3.00
2022-09-27T05:57:10.292Z,3.10
2022-09-27T05:58:28.229Z,3.10
2022-09-27T05:59:49.442Z,3.20
2022-09-27T06:01:30.429Z,3.20
2022-09-27T06:03:03.005Z,3.00
2022-09-27T06:04:41.848Z,2.90
2022-09-27T06:06:09.259Z,2.80
2022-09-27T06:07:27.951Z,2.80
2022-09-27T06:08:37.007Z,3.60
2022-09-27T06:09:47.525Z,2.90
2022-09-27T06:11:08.214Z,2.90
2022-09-27T06:12:16.982Z,2.90
2022-09-27T06:13:24.976Z,2.70
2022-09-27T06:14:32.936Z,2.80
2022-09-27T06:15:49.322Z,3.00
2022-09-27T06:16:57.716Z,3.00
2022-09-27T06:18:12.316Z,2.80
2022-09-27T06:19:21.787Z,2.90
2022-09-27T06:20:30.143Z,2.80
2022-09-27T06:21:42.241Z,2.70
2022-09-27T06:22:56.420Z,3.10
2022-09-27T06:24:05.415Z,2.60
2022-09-27T06:25:16.819Z,2.90
2022-09-27T06:26:42.671Z,2.50
2022-09-27T06:27:57.721Z,2.40
2022-09-27T06:29:11.329Z,3.60
2022-09-27T06:30:26.573Z,2.90
2022-09-27T06:31:35.264Z,3.10
2022-09-27T06:33:02.413Z,2.50
2022-09-27T06:34:27.248Z,2.60
2022-09-27T06:35:40.637Z,3.10
2022-09-27T06:36:52.954Z,3.00
2022-09-27T06:38:14.244Z,3.00
2022-09-27T06:39:31.152Z,2.80
2022-09-27T06:40:50.484Z,3.00
2022-09-27T06:42:13.256Z,2.30
2022-09-27T06:43:54.031Z,2.50
2022-09-27T06:45:18.975Z,2.70
2022-09-27T06:46:46.340Z,2.50
2022-09-27T06:48:22.796Z,2.80
2022-09-27T06:49:48.148Z,3.00
2022-09-27T06:51:00.087Z,3.60
2022-09-27T06:52:09.450Z,2.90
2022-09-27T06:53:24.980Z,3.40
2022-09-27T06:54:33.726Z,3.30
2022-09-27T06:55:45.504Z,3.10
2022-09-27T06:57:03.771Z,2.90
2022-09-27T06:58:31.634Z,3.30
2022-09-27T07:00:16.449Z,2.90
2022-09-27T07:01:45.513Z,3.40
2022-09-27T07:03:10.526Z,3.10
2022-09-27T07:04:55.326Z,3.00
2022-09-27T07:06:40.855Z,3.30
2022-09-27T07:08:14.859Z,3.20
2022-09-27T07:09:23.022Z,3.30
2022-09-27T07:10:31.463Z,3.40
2022-09-27T07:11:40.489Z,3.70
2022-09-27T07:12:54.355Z,3.50
2022-09-27T07:14:06.788Z,3.40
2022-09-27T07:15:16.918Z,3.40
2022-09-27T07:16:25.718Z,2.90
2022-09-27T07:17:34.559Z,2.90
2022-09-27T07:18:43.627Z,2.80
2022-09-27T07:19:53.132Z,2.90
2022-09-27T07:21:03.263Z,3.10
2022-09-27T07:22:11.995Z,3.00
2022-09-27T07:23:22.492Z,2.70
2022-09-27T07:24:31.391Z,2.90
2022-09-27T07:25:41.457Z,3.00
2022-09-27T07:26:50.622Z,3.30
2022-09-27T07:28:11.145Z,2.70
2022-09-27T07:29:19.468Z,3.30
2022-09-27T07:30:29.126Z,3.40
2022-09-27T07:31:37.453Z,3.30
2022-09-27T07:32:46.630Z,3.30
2022-09-27T07:33:55.287Z,3.10
2022-09-27T07:35:04.702Z,2.90
2022-09-27T07:36:13.606Z,2.80
2022-09-27T07:37:24.933Z,2.90
2022-09-27T07:38:33.387Z,2.80
2022-09-27T07:39:42.137Z,3.20
2022-09-27T07:40:50.824Z,3.00
2022-09-27T07:42:00.450Z,3.60
2022-09-27T07:43:14.512Z,3.10
2022-09-27T07:44:22.215Z,3.40
2022-09-27T07:46:01.109Z,2.70
2022-09-27T07:47:29.816Z,3.20
2022-09-27T07:48:48.457Z,3.10
2022-09-27T07:50:14.552Z,3.20
2022-09-27T07:51:39.070Z,3.30
2022-09-27T07:52:54.734Z,2.80
2022-09-27T07:54:17.005Z,2.80
2022-09-27T07:55:44.607Z,3.20
2022-09-27T07:56:58.220Z,3.00
2022-09-27T07:58:08.105Z,3.10
2022-09-27T07:59:18.009Z,2.50
2022-09-27T08:00:28.240Z,2.90
2022-09-27T08:01:39.681Z,3.00
2022-09-27T08:02:48.094Z,2.60
2022-09-27T08:03:56.594Z,2.80
2022-09-27T08:05:06.398Z,3.40
2022-09-27T08:06:17.355Z,2.90
2022-09-27T08:07:25.814Z,3.20
2022-09-27T08:08:35.734Z,3.50
2022-09-27T08:09:46.218Z,2.60
2022-09-27T08:10:55.250Z,3.10
2022-09-27T08:12:06.439Z,3.10
2022-09-27T08:13:15.159Z,2.90
2022-09-27T08:14:24.999Z,3.10
2022-09-27T08:15:40.821Z,3.10
2022-09-27T08:16:50.244Z,3.20
2022-09-27T08:18:19.028Z,2.70
2022-09-27T08:19:40.351Z,3.20
2022-09-27T08:21:27.665Z,2.80
2022-09-27T08:22:58.252Z,3.20
2022-09-27T08:24:12.449Z,3.30
2022-09-27T08:25:38.920Z,3.00
2022-09-27T08:27:12.022Z,3.40
2022-09-27T08:28:33.342Z,3.30
2022-09-27T08:30:01.251Z,3.30
2022-09-27T08:31:10.239Z,3.50
2022-09-27T08:32:23.081Z,3.40
2022-09-27T08:33:34.897Z,2.90
2022-09-27T08:34:45.417Z,2.70
2022-09-27T08:35:55.531Z,3.50
2022-09-27T08:37:05.460Z,3.50
2022-09-27T08:38:17.103Z,3.40
2022-09-27T08:39:25.931Z,3.10
2022-09-27T08:40:56.662Z,2.80
2022-09-27T08:42:05.362Z,3.30
2022-09-27T08:43:30.227Z,3.00
2022-09-27T08:45:02.341Z,3.20
2022-09-27T08:46:30.222Z,3.10
2022-09-27T08:47:40.308Z,2.90
2022-09-27T08:48:51.793Z,3.00
2022-09-27T08:50:02.188Z,3.10
2022-09-27T08:51:12.314Z,3.10
2022-09-27T08:52:35.310Z,3.20
2022-09-27T08:53:54.592Z,3.50
2022-09-27T08:55:05.424Z,2.90
2022-09-27T08:56:13.799Z,2.90
2022-09-27T08:57:26.776Z,3.30
2022-09-27T08:58:38.827Z,2.60
2022-09-27T09:00:14.616Z,3.00
2022-09-27T09:01:27.813Z,3.00
2022-09-27T09:03:04.707Z,2.60
2022-09-27T09:04:14.967Z,3.10
2022-09-27T09:05:35.174Z,2.80
2022-09-27T09:06:52.948Z,3.20
2022-09-27T09:08:31.578Z,2.50
2022-09-27T09:10:00.573Z,2.60
2022-09-27T09:11:43.632Z,3.30
2022-09-27T09:12:59.493Z,3.00
2022-09-27T09:14:35.158Z,2.80
2022-09-27T09:16:11.716Z,2.90
2022-09-27T09:17:38.410Z,3.00
2022-09-27T09:19:37.058Z,2.60
2022-09-27T09:21:21.423Z,2.90
2022-09-27T09:22:39.636Z,2.80
2022-09-27T09:24:19.527Z,2.90
2022-09-27T09:25:57.555Z,3.30
2022-09-27T09:27:26.960Z,2.70
2022-09-27T09:29:09.133Z,3.20
2022-09-27T09:30:38.511Z,3.50
2022-09-27T09:31:54.281Z,3.10
2022-09-27T09:33:09.111Z,3.10
2022-09-27T09:34:36.905Z,3.30
2022-09-27T09:35:57.052Z,3.30
2022-09-27T09:37:06.074Z,3.10
2022-09-27T09:38:17.596Z,3.50
2022-09-27T09:39:32.549Z,3.40
2022-09-27T09:40:55.456Z,3.10
2022-09-27T09:42:17.501Z,2.90
2022-09-27T09:43:33.821Z,3.40
2022-09-27T09:44:55.888Z,3.50
2022-09-27T09:46:18.627Z,3.60
2022-09-27T09:47:43.336Z,2.80
2022-09-27T09:49:04.869Z,3.10
2022-09-27T09:50:24.471Z,3.00
2022-09-27T09:51:45.186Z,2.60
2022-09-27T09:52:57.032Z,3.40
2022-09-27T09:54:10.840Z,2.80
2022-09-27T09:55:23.178Z,3.10
2022-09-27T09:56:36.340Z,3.50
2022-09-27T09:58:03.118Z,3.10
2022-09-27T09:59:26.380Z,3.40
2022-09-27T10:00:35.135Z,2.90
2022-09-27T10:01:47.685Z,3.00
2022-09-27T10:02:58.033Z,3.30
2022-09-27T10:04:07.499Z,3.40
2022-09-27T10:05:25.980Z,3.00
2022-09-27T10:06:40.373Z,3.10
2022-09-27T10:07:50.187Z,3.40
2022-09-27T10:08:58.364Z,3.30
2022-09-27T10:10:16.471Z,3.40
2022-09-27T10:11:48.198Z,3.00
2022-09-27T10:13:06.415Z,3.10
2022-09-27T10:14:19.961Z,3.60
2022-09-27T10:15:32.587Z,4.00
2022-09-27T10:16:44.391Z,3.20
2022-09-27T10:17:55.775Z,3.10
2022-09-27T10:19:05.966Z,3.20
2022-09-27T10:20:24.372Z,3.50
2022-09-27T10:21:33.293Z,2.80
2022-09-27T10:22:50.705Z,3.30
2022-09-27T10:24:18.778Z,3.40
2022-09-27T10:25:54.282Z,3.00
2022-09-27T10:27:17.248Z,3.40
2022-09-27T10:28:33.953Z,3.50
2022-09-27T10:29:42.378Z,3.50
2022-09-27T10:31:03.206Z,3.50
2022-09-27T10:32:25.006Z,3.00
2022-09-27T10:34:00.490Z,2.90
2022-09-27T10:35:32.720Z,3.10
2022-09-27T10:36:41.329Z,2.90
2022-09-27T10:37:50.171Z,3.70
2022-09-27T10:39:06.484Z,3.00
2022-09-27T10:40:35.123Z,2.90
2022-09-27T10:41:45.299Z,3.30
2022-09-27T10:43:00.087Z,2.90
2022-09-27T10:44:36.428Z,3.20
2022-09-27T10:46:35.838Z,3.00
2022-09-27T10:47:59.821Z,3.00
2022-09-27T10:49:24.969Z,2.90
2022-09-27T10:50:50.138Z,2.80
2022-09-27T10:52:11.291Z,2.70
2022-09-27T10:53:21.891Z,3.30
2022-09-27T10:54:39.187Z,3.00
2022-09-27T10:55:51.992Z,3.30
2022-09-27T10:57:06.858Z,3.20
2022-09-27T10:58:39.518Z,3.30
2022-09-27T11:00:03.039Z,2.70
2022-09-27T11:01:17.374Z,2.90
2022-09-27T11:03:03.444Z,3.30
2022-09-27T11:04:21.438Z,3.20
2022-09-27T11:05:31.554Z,3.40
2022-09-27T11:06:40.094Z,3.30
2022-09-27T11:07:56.957Z,3.30
2022-09-27T11:09:28.516Z,2.90
2022-09-27T11:10:39.359Z,3.20
2022-09-27T11:11:48.026Z,2.70
2022-09-27T11:13:16.571Z,2.90
2022-09-27T11:14:26.729Z,3.50
2022-09-27T11:15:37.238Z,3.00
2022-09-27T11:17:08.736Z,3.10
2022-09-27T11:18:47.039Z,2.90
2022-09-27T11:19:58.819Z,3.00
2022-09-27T11:21:18.643Z,3.20
2022-09-27T11:22:57.655Z,3.30
2022-09-27T11:24:50.423Z,3.50
2022-09-27T11:26:04.181Z,3.10
2022-09-27T11:27:18.249Z,3.20
2022-09-27T11:28:44.359Z,3.10
2022-09-27T11:30:14.023Z,3.30
2022-09-27T11:32:05.414Z,3.50
2022-09-27T11:33:16.813Z,3.10
2022-09-27T11:35:04.387Z,3.30
2022-09-27T11:36:36.019Z,3.40
2022-09-27T11:38:12.756Z,3.00
2022-09-27T11:39:27.170Z,3.70
2022-09-27T11:41:05.607Z,3.70
2022-09-27T11:42:27.244Z,3.40
2022-09-27T11:43:49.895Z,3.50
2022-09-27T11:45:37.420Z,3.50
2022-09-27T11:46:55.789Z,3.50
2022-09-27T11:48:14.793Z,3.60
2022-09-27T11:49:50.017Z,3.90
2022-09-27T11:51:08.049Z,3.00
2022-09-27T11:52:50.452Z,3.40
2022-09-27T11:54:03.294Z,3.40
2022-09-27T11:55:25.416Z,3.50
2022-09-27T11:57:14.613Z,3.50
2022-09-27T11:58:42.053Z,4.10
2022-09-27T12:00:27.674Z,4.10
2022-09-27T12:01:54.157Z,3.10
2022-09-27T12:03:23.424Z,4.10
2022-09-27T12:04:53.333Z,3.30
2022-09-27T12:06:21.727Z,3.70
2022-09-27T12:07:47.849Z,3.80
2022-09-27T12:09:08.861Z,3.70
2022-09-27T12:10:23.128Z,3.80
2022-09-27T12:11:40.476Z,4.30
2022-09-27T12:12:53.397Z,3.20
2022-09-27T12:14:04.965Z,3.80
2022-09-27T12:15:28.401Z,3.50
2022-09-27T12:16:36.498Z,4.00
2022-09-27T12:17:46.655Z,4.20
2022-09-27T12:18:56.606Z,3.50
2022-09-27T12:20:33.524Z,3.60
2022-09-27T12:21:42.775Z,3.70
2022-09-27T12:23:09.788Z,3.20
2022-09-27T12:24:30.858Z,3.70
2022-09-27T12:25:45.762Z,3.60
2022-09-27T12:27:19.668Z,3.50
2022-09-27T12:28:42.515Z,3.50
2022-09-27T12:29:51.663Z,3.40
2022-09-27T12:31:28.496Z,3.80
2022-09-27T12:32:55.435Z,3.40
2022-09-27T12:35:56.399Z,3.40
2022-09-27T12:37:14.145Z,3.30
2022-09-27T12:39:05.157Z,3.30
2022-09-27T12:40:23.295Z,3.60
2022-09-27T12:41:33.629Z,3.80
2022-09-27T12:43:23.486Z,3.70
2022-09-27T12:45:01.596Z,3.80
2022-09-27T12:46:42.322Z,3.80
2022-09-27T12:48:00.534Z,3.90
2022-09-27T12:49:12.767Z,3.90
2022-09-27T12:50:26.426Z,4.10
2022-09-27T12:51:56.892Z,4.20
2022-09-27T12:53:16.723Z,4.10
2022-09-27T12:55:24.664Z,3.90
2022-09-27T12:56:46.314Z,4.00
2022-09-27T12:58:18.352Z,4.20
2022-09-27T12:59:30.037Z,3.90
2022-09-27T13:00:49.567Z,3.90
2022-09-27T13:02:01.635Z,4.10
2022-09-27T13:03:34.818Z,4.20
2022-09-27T13:04:55.216Z,4.00
2022-09-27T13:06:54.834Z,4.30
2022-09-27T13:08:41.836Z,3.80
2022-09-27T13:10:10.220Z,4.30
2022-09-27T13:11:51.131Z,3.80
2022-09-27T13:12:59.894Z,3.20
2022-09-27T13:14:08.875Z,3.90
2022-09-27T13:15:38.148Z,4.20
2022-09-27T13:16:48.805Z,3.80
2022-09-27T13:18:03.401Z,4.00
2022-09-27T13:19:39.123Z,4.20
2022-09-27T13:20:50.980Z,4.10
2022-09-27T13:22:41.527Z,3.70
2022-09-27T13:24:06.167Z,4.20
2022-09-27T13:25:54.408Z,4.10
2022-09-27T13:27:28.245Z,3.80
2022-09-27T13:29:05.784Z,4.50
2022-09-27T13:30:22.573Z,3.80
2022-09-27T13:31:59.799Z,4.30
2022-09-27T13:33:38.180Z,4.60
2022-09-27T13:34:52.449Z,4.40
2022-09-27T13:36:30.301Z,4.30
2022-09-27T13:38:12.300Z,4.10
2022-09-27T13:39:26.178Z,5.00
2022-09-27T13:40:56.781Z,4.60
2022-09-27T13:42:37.070Z,4.90
2022-09-27T13:43:59.861Z,4.90
2022-09-27T13:45:37.327Z,4.50
2022-09-27T13:47:29.942Z,4.30
2022-09-27T13:48:53.428Z,5.20
2022-09-27T13:50:27.706Z,4.60
2022-09-27T13:52:03.183Z,5.20
2022-09-27T13:53:27.985Z,5.60
2022-09-27T13:54:41.281Z,4.50
2022-09-27T13:55:52.895Z,5.30
2022-09-27T13:57:50.772Z,5.30
2022-09-27T13:59:04.041Z,5.50
2022-09-27T14:00:40.975Z,5.00
2022-09-27T14:02:15.815Z,4.30
2022-09-27T14:03:37.402Z,4.40
2022-09-27T14:04:51.639Z,4.00
2022-09-27T14:06:07.883Z,4.40
2022-09-27T14:07:34.538Z,4.70
2022-09-27T14:08:53.622Z,5.00
2022-09-27T14:10:07.362Z,4.80
2022-09-27T14:11:23.659Z,4.50
2022-09-27T14:12:34.953Z,4.00
2022-09-27T14:13:43.344Z,4.10
2022-09-27T14:14:54.296Z,5.10
2022-09-27T14:16:06.839Z,4.70
2022-09-27T14:17:22.539Z,4.80
2022-09-27T14:18:34.637Z,4.30
2022-09-27T14:19:43.506Z,4.50
2022-09-27T14:20:54.636Z,4.40
2022-09-27T14:22:34.731Z,4.50
2022-09-27T14:23:45.968Z,5.70
2022-09-27T14:25:05.619Z,4.60
2022-09-27T14:26:27.783Z,4.40
2022-09-27T14:27:39.816Z,4.80
2022-09-27T14:29:19.668Z,5.00
2022-09-27T14:30:30.766Z,4.90
2022-09-27T14:32:08.080Z,4.60
2022-09-27T14:33:36.182Z,5.00
2022-09-27T14:35:33.280Z,4.30
2022-09-27T14:37:01.356Z,4.60
2022-09-27T14:38:37.980Z,4.60
2022-09-27T14:40:01.444Z,5.10
2022-09-27T14:41:13.852Z,4.70
2022-09-27T14:42:23.547Z,4.50
2022-09-27T14:43:32.155Z,4.80
2022-09-27T14:44:40.320Z,4.60
2022-09-27T14:45:50.819Z,5.30
2022-09-27T14:47:22.029Z,5.30
2022-09-27T14:48:40.504Z,4.80
2022-09-27T14:49:53.588Z,4.40
2022-09-27T14:51:08.570Z,4.60
2022-09-27T14:52:22.673Z,4.60
2022-09-27T14:53:34.632Z,5.10
2022-09-27T14:54:42.137Z,5.10
2022-09-27T14:55:49.686Z,4.50
2022-09-27T14:56:58.394Z,4.90
2022-09-27T14:58:06.037Z,4.90
2022-09-27T14:59:17.918Z,5.10
2022-09-27T15:00:28.380Z,5.30
2022-09-27T15:01:36.703Z,5.30
2022-09-27T15:02:45.609Z,6.10
2022-09-27T15:03:54.869Z,6.00
2022-09-27T15:05:02.520Z,5.80
2022-09-27T15:06:10.090Z,5.20
2022-09-27T15:07:18.437Z,5.50
2022-09-27T15:08:26.280Z,5.30
2022-09-27T15:09:33.862Z,5.40
2022-09-27T15:10:42.090Z,5.50
2022-09-27T15:11:53.779Z,5.60
2022-09-27T15:13:02.693Z,5.60
2022-09-27T15:14:13.722Z,6.10
2022-09-27T15:15:23.950Z,5.20
2022-09-27T15:16:32.387Z,5.80
2022-09-27T15:17:45.236Z,5.90
2022-09-27T15:19:11.246Z,5.90
2022-09-27T15:20:38.411Z,5.20
2022-09-27T15:21:48.619Z,5.30
2022-09-27T15:22:56.825Z,5.20
2022-09-27T15:24:04.251Z,5.40
2022-09-27T15:25:33.694Z,5.50
2022-09-27T15:26:48.474Z,5.80
2022-09-27T15:27:57.221Z,5.90
2022-09-27T15:29:05.779Z,4.90
2022-09-27T15:30:19.977Z,5.80
2022-09-27T15:31:42.499Z,5.50
2022-09-27T15:32:54.307Z,5.10
2022-09-27T15:34:01.966Z,5.70
2022-09-27T15:35:10.001Z,5.80
2022-09-27T15:36:19.803Z,4.90
2022-09-27T15:37:47.740Z,5.20
2022-09-27T15:38:54.716Z,5.10
2022-09-27T15:40:21.210Z,5.20
2022-09-27T15:41:31.013Z,4.90
2022-09-27T15:42:58.945Z,5.30
2022-09-27T15:44:12.240Z,4.90
2022-09-27T15:45:37.560Z,4.70
2022-09-27T15:46:49.905Z,5.30
2022-09-27T15:47:57.865Z,5.20
2022-09-27T15:49:24.139Z,5.10
2022-09-27T15:50:34.483Z,4.60
2022-09-27T15:51:46.829Z,4.80
2022-09-27T15:52:58.680Z,5.10
2022-09-27T15:54:06.527Z,5.00
2022-09-27T15:55:14.777Z,5.00
2022-09-27T15:56:22.484Z,4.40
2022-09-27T15:57:30.425Z,5.30
2022-09-27T15:58:38.733Z,4.50
2022-09-27T15:59:46.471Z,5.30
2022-09-27T16:01:03.779Z,4.70
2022-09-27T16:02:18.603Z,5.00
2022-09-27T16:03:30.380Z,4.90
2022-09-27T16:04:38.114Z,4.80
2022-09-27T16:05:45.806Z,4.80
2022-09-27T16:06:53.280Z,5.30
2022-09-27T16:08:01.042Z,5.20
2022-09-27T16:09:11.039Z,4.70
2022-09-27T16:10:24.961Z,4.30
2022-09-27T16:11:32.534Z,4.60
2022-09-27T16:12:40.497Z,5.60
2022-09-27T16:13:48.003Z,4.60
2022-09-27T16:14:56.135Z,4.80
2022-09-27T16:16:04.719Z,4.40
2022-09-27T16:17:11.947Z,4.60
2022-09-27T16:18:19.437Z,5.10
2022-09-27T16:19:26.728Z,5.10
2022-09-27T16:20:34.003Z,5.70
2022-09-27T16:21:41.130Z,4.60
2022-09-27T16:22:48.428Z,5.10
2022-09-27T16:23:56.529Z,4.70
2022-09-27T16:25:03.920Z,5.40
2022-09-27T16:26:12.105Z,5.00
2022-09-27T16:27:26.569Z,4.90
2022-09-27T16:28:37.126Z,4.60
2022-09-27T16:29:45.509Z,5.00
2022-09-27T16:30:53.291Z,4.80
2022-09-27T16:32:00.772Z,4.20
2022-09-27T16:33:08.187Z,5.10
2022-09-27T16:34:15.571Z,4.30
2022-09-27T16:35:23.792Z,4.70
2022-09-27T16:36:30.947Z,4.40
2022-09-27T16:37:38.262Z,4.70
2022-09-27T16:38:45.725Z,4.60
2022-09-27T16:39:53.658Z,4.70
2022-09-27T16:41:04.656Z,4.20
2022-09-27T16:42:12.148Z,4.30
2022-09-27T16:43:20.146Z,4.30
2022-09-27T16:44:27.916Z,4.10
2022-09-27T16:45:37.564Z,4.30
2022-09-27T16:46:49.622Z,4.70
2022-09-27T16:47:57.235Z,4.70
2022-09-27T16:49:04.662Z,4.30
2022-09-27T16:50:34.298Z,5.00
2022-09-27T16:51:59.988Z,4.40
2022-09-27T16:53:07.546Z,4.30
2022-09-27T16:54:16.929Z,4.40
2022-09-27T16:55:24.463Z,4.20
2022-09-27T16:56:33.844Z,4.60
2022-09-27T16:57:41.351Z,4.30
2022-09-27T16:58:49.769Z,4.60
2022-09-27T17:00:00.123Z,4.40
2022-09-27T17:01:09.280Z,4.40
2022-09-27T17:02:16.599Z,4.50
2022-09-27T17:03:24.698Z,4.40
2022-09-27T17:04:31.585Z,4.30
2022-09-27T17:05:38.791Z,4.10
2022-09-27T17:06:46.008Z,3.80
2022-09-27T17:07:53.586Z,4.20
2022-09-27T17:09:06.446Z,4.30
2022-09-27T17:10:13.764Z,4.10
2022-09-27T17:11:22.112Z,4.40
2022-09-27T17:12:29.733Z,4.00
2022-09-27T17:13:36.904Z,4.20
2022-09-27T17:14:43.956Z,4.40
2022-09-27T17:15:51.473Z,4.10
2022-09-27T17:16:59.137Z,4.30
2022-09-27T17:18:06.579Z,3.50
2022-09-27T17:19:14.279Z,4.20
2022-09-27T17:20:21.880Z,4.20